This is the latest recevied weather packets stored in our database for station/object IK2ILW-6. If no packets are shown the sender has not sent any weather packets the latest 10 day(s).
| Time | Temp. | Humidity | Pressure | Rain* | Wind** | Luminosity | Snow |
|---|---|---|---|---|---|---|---|
| 1777814485 | 10° C | 58% | 1021.8 hPa | 0 mm | - | 503 W/m² | - |
| 1777814186 | 10° C | 61% | 1021.8 hPa | 0 mm | - | 469 W/m² | - |
| 1777813887 | 10° C | 62% | 1021.7 hPa | 0 mm | - | 649 W/m² | - |
| 1777812986 | 11.11° C | 58% | 1021.9 hPa | 0 mm | - | 691 W/m² | - |
| 1777812402 | 10.56° C | 59% | 1021.7 hPa | 0 mm | - | 879 W/m² | - |
| 1777811786 | 10° C | 60% | 1021.7 hPa | 0 mm | - | 793 W/m² | - |
| 1777811485 | 10° C | 56% | 1021.7 hPa | 0 mm | - | 635 W/m² | - |
| 1777811183 | 10° C | 57% | 1021.8 hPa | 0 mm | - | 707 W/m² | - |
| 1777810884 | 10° C | 56% | 1021.8 hPa | 0 mm | - | 728 W/m² | - |
| 1777810285 | 11.11° C | 53% | 1021.7 hPa | 0 mm | - | 661 W/m² | - |
| 1777809396 | 12.22° C | 51% | 1021.8 hPa | 0 mm | - | 712 W/m² | - |
| 1777809098 | 12.22° C | 54% | 1021.8 hPa | 0 mm | - | 951 W/m² | - |
| 1777808802 | 12.22° C | 55% | 1021.8 hPa | 0 mm | - | 990 W/m² | - |
| 1777808191 | 11.11° C | 56% | 1021.8 hPa | 0 mm | - | 874 W/m² | - |
| 1777807600 | 11.11° C | 55% | 1021.9 hPa | 0 mm | - | 691 W/m² | - |
| 1777807001 | 11.67° C | 54% | 1021.8 hPa | 0 mm | - | 554 W/m² | - |
| 1777806685 | 11.11° C | 55% | 1021.9 hPa | 0 mm | - | 700 W/m² | - |
| 1777806390 | 11.67° C | 48% | 1021.9 hPa | 0 mm | - | 605 W/m² | - |
| 1777803998 | 10.56° C | 58% | 1021.9 hPa | 0 mm | - | 886 W/m² | - |
| 1777803684 | 10° C | 52% | 1022 hPa | 0 mm | - | 861 W/m² | - |
| 1777803386 | 10.56° C | 52% | 1021.9 hPa | 0 mm | - | 881 W/m² | - |
| 1777803090 | 11.11° C | 55% | 1021.9 hPa | 0 mm | - | 870 W/m² | - |
| 1777802785 | 10.56° C | 49% | 1021.8 hPa | 0 mm | - | 868 W/m² | - |
| 1777802500 | 10° C | 52% | 1021.9 hPa | 0 mm | - | 860 W/m² | - |
| 1777802184 | 10.56° C | 55% | 1022 hPa | 0 mm | - | 831 W/m² | - |
* Rain latest hour (hover to see other rain measurements)
** Current wind speed in m/s (hover to see current wind gust speed)